createdAt,value
2024-02-13T00:02:33.201Z,13.17
2024-02-13T00:07:40.801Z,15.13
2024-02-13T00:12:46.570Z,11.97
2024-02-13T00:17:52.844Z,15.30
2024-02-13T00:23:00.759Z,15.33
2024-02-13T00:28:07.409Z,14.33
2024-02-13T00:33:13.316Z,13.93
2024-02-13T00:38:19.045Z,14.43
2024-02-13T00:43:25.157Z,14.83
2024-02-13T00:48:32.615Z,16.37
2024-02-13T00:53:39.402Z,16.07
2024-02-13T00:58:47.023Z,15.33
2024-02-13T01:03:52.903Z,16.17
2024-02-13T01:08:58.887Z,21.17
2024-02-13T01:14:05.417Z,15.67
2024-02-13T01:19:11.216Z,14.83
2024-02-13T01:24:17.565Z,16.57
2024-02-13T01:29:23.981Z,15.03
2024-02-13T01:34:31.763Z,11.87
2024-02-13T01:39:37.430Z,16.10
2024-02-13T01:44:43.495Z,16.27
2024-02-13T01:49:49.952Z,13.37
2024-02-13T01:54:56.078Z,11.10
2024-02-13T02:00:02.035Z,13.73
2024-02-13T02:05:15.345Z,15.50
2024-02-13T02:10:21.287Z,13.40
2024-02-13T02:15:27.862Z,16.13
2024-02-13T02:20:33.790Z,12.80
2024-02-13T02:25:39.609Z,14.93
2024-02-13T02:30:46.885Z,13.23
2024-02-13T02:35:53.904Z,11.07
2024-02-13T02:40:59.689Z,14.47
2024-02-13T02:46:06.593Z,13.50
2024-02-13T02:51:12.467Z,12.73
2024-02-13T02:56:18.653Z,10.27
2024-02-13T03:01:26.019Z,12.40
2024-02-13T03:06:32.603Z,13.90
2024-02-13T03:11:38.462Z,13.43
2024-02-13T03:16:45.729Z,10.73
2024-02-13T03:21:51.489Z,11.90
2024-02-13T03:26:57.403Z,9.30
2024-02-13T03:32:03.118Z,15.43
2024-02-13T03:37:10.033Z,15.03
2024-02-13T03:42:17.642Z,12.80
2024-02-13T03:47:23.951Z,13.43
2024-02-13T03:52:30.283Z,10.80
2024-02-13T03:57:37.287Z,10.97
2024-02-13T04:02:43.106Z,7.50
2024-02-13T04:07:49.562Z,10.43
2024-02-13T04:12:55.330Z,9.97
2024-02-13T04:18:01.145Z,8.50
2024-02-13T04:23:07.499Z,9.17
2024-02-13T04:28:13.140Z,9.77
2024-02-13T04:33:19.955Z,11.67
2024-02-13T04:38:25.793Z,9.20
2024-02-13T04:43:31.662Z,6.40
2024-02-13T04:48:39.054Z,15.47
2024-02-13T04:53:45.065Z,8.10
2024-02-13T04:58:52.967Z,9.53
2024-02-13T05:04:18.512Z,6.87
2024-02-13T05:09:24.983Z,9.13
2024-02-13T05:14:32.108Z,5.00
2024-02-13T05:19:37.923Z,5.50
2024-02-13T05:24:43.562Z,6.87
2024-02-13T05:29:49.591Z,5.73
2024-02-13T05:34:57.001Z,8.00
2024-02-13T05:40:02.718Z,8.43
2024-02-13T05:45:09.210Z,6.03
2024-02-13T05:50:16.604Z,3.80
2024-02-13T05:55:22.428Z,7.87
2024-02-13T06:00:28.207Z,2.60
2024-02-13T06:05:34.226Z,7.43
2024-02-13T06:10:41.204Z,4.87
2024-02-13T06:15:47.379Z,4.60
2024-02-13T06:20:54.842Z,8.00
2024-02-13T06:26:01.050Z,5.87
2024-02-13T06:31:06.733Z,4.07
2024-02-13T06:36:12.493Z,6.97
2024-02-13T06:41:18.079Z,4.17
2024-02-13T06:46:24.024Z,6.23
2024-02-13T06:51:30.408Z,4.40
2024-02-13T06:56:37.663Z,9.63
2024-02-13T07:01:43.379Z,4.90
2024-02-13T07:06:59.406Z,7.67
2024-02-13T07:11:56.253Z,6.80
2024-02-13T07:17:02.152Z,5.03
2024-02-13T07:22:09.145Z,6.90
2024-02-13T07:27:16.435Z,4.97
2024-02-13T07:32:22.433Z,5.13
2024-02-13T07:37:28.321Z,5.20
2024-02-13T07:42:34.045Z,5.40
2024-02-13T07:47:40.924Z,7.10
2024-02-13T07:52:47.110Z,6.07
2024-02-13T07:57:54.520Z,8.17
2024-02-13T08:03:01.158Z,5.77
2024-02-13T08:08:10.196Z,7.97
2024-02-13T08:13:16.458Z,5.23
2024-02-13T08:18:22.964Z,5.50
2024-02-13T08:23:28.926Z,5.73
2024-02-13T08:28:34.683Z,8.00
2024-02-13T08:33:42.279Z,5.90
2024-02-13T08:38:48.192Z,7.03
2024-02-13T08:43:54.136Z,7.57
2024-02-13T08:49:00.120Z,7.53
2024-02-13T08:54:09.680Z,5.80
2024-02-13T08:59:15.525Z,6.40
2024-02-13T09:04:21.787Z,7.60
2024-02-13T09:09:28.406Z,7.33
2024-02-13T09:14:35.311Z,6.00
2024-02-13T09:19:42.712Z,6.10
2024-02-13T09:24:50.072Z,11.30
2024-02-13T09:29:56.547Z,5.50
2024-02-13T09:35:02.576Z,7.23
2024-02-13T09:40:14.319Z,5.90
2024-02-13T09:45:20.362Z,8.17
2024-02-13T09:50:30.653Z,5.23
2024-02-13T09:55:39.286Z,7.87
2024-02-13T10:00:45.338Z,7.30
2024-02-13T10:05:52.207Z,6.73
2024-02-13T10:11:06.689Z,5.97
2024-02-13T10:16:27.688Z,4.87
2024-02-13T10:21:35.260Z,4.43
2024-02-13T10:26:41.118Z,6.47
2024-02-13T10:31:46.903Z,4.23
2024-02-13T10:36:53.232Z,5.73
2024-02-13T10:42:00.598Z,5.00
2024-02-13T10:47:09.169Z,5.00
2024-02-13T10:52:15.475Z,4.73
2024-02-13T10:57:24.072Z,4.53
2024-02-13T11:02:32.092Z,3.70
2024-02-13T11:07:42.092Z,3.63
2024-02-13T11:12:46.826Z,5.07
2024-02-13T11:17:59.070Z,5.10
2024-02-13T11:23:04.895Z,3.70
2024-02-13T11:28:12.697Z,3.83
2024-02-13T11:33:21.898Z,4.40
2024-02-13T11:38:30.038Z,3.63
2024-02-13T11:43:35.736Z,4.63
2024-02-13T11:48:42.527Z,4.30
2024-02-13T11:53:48.995Z,3.57
2024-02-13T11:58:56.320Z,2.70
2024-02-13T12:04:02.915Z,2.70
2024-02-13T12:09:09.851Z,2.67
2024-02-13T12:14:16.025Z,3.63
2024-02-13T12:19:22.014Z,3.90
2024-02-13T12:24:27.829Z,2.37
2024-02-13T12:29:37.008Z,3.47
2024-02-13T12:34:43.711Z,2.00
2024-02-13T12:39:51.189Z,2.00
2024-02-13T12:44:58.623Z,1.93
2024-02-13T12:50:04.939Z,2.53
2024-02-13T12:55:12.612Z,1.90
2024-02-13T13:00:19.336Z,2.50
2024-02-13T13:05:26.594Z,4.87
2024-02-13T13:10:32.448Z,3.03
2024-02-13T13:15:39.735Z,1.90
2024-02-13T13:20:46.764Z,1.73
2024-02-13T13:25:56.697Z,4.87
2024-02-13T13:31:04.155Z,4.13
2024-02-13T13:36:10.399Z,1.50
2024-02-13T13:41:16.839Z,1.60
2024-02-13T13:46:22.555Z,3.00
2024-02-13T13:51:30.018Z,4.17
2024-02-13T13:56:35.676Z,2.83
2024-02-13T14:01:42.017Z,1.53
2024-02-13T14:06:47.798Z,1.97
2024-02-13T14:11:54.070Z,2.03
2024-02-13T14:17:01.584Z,1.50
2024-02-13T14:22:09.091Z,1.73
2024-02-13T14:27:15.066Z,2.17
2024-02-13T14:32:20.870Z,3.60
2024-02-13T14:37:27.028Z,2.97
2024-02-13T14:42:33.199Z,4.97
2024-02-13T14:47:39.665Z,2.10
2024-02-13T14:52:45.883Z,2.20
2024-02-13T14:58:00.841Z,2.13
2024-02-13T15:03:01.879Z,2.87
2024-02-13T15:08:07.968Z,1.10
2024-02-13T15:13:15.403Z,1.60
2024-02-13T15:18:22.938Z,2.83
2024-02-13T15:23:30.783Z,1.63
2024-02-13T15:28:36.970Z,2.37
2024-02-13T15:33:43.006Z,3.07
2024-02-13T15:39:07.218Z,4.70
2024-02-13T15:44:34.655Z,1.73
2024-02-13T15:49:42.424Z,1.43
2024-02-13T15:54:49.209Z,1.73
2024-02-13T15:59:55.052Z,2.40
2024-02-13T16:05:01.035Z,4.27
2024-02-13T16:10:09.987Z,1.67
2024-02-13T16:15:15.846Z,4.40
2024-02-13T16:20:23.722Z,3.07
2024-02-13T16:25:31.732Z,3.63
2024-02-13T16:30:37.653Z,5.30
2024-02-13T16:35:43.469Z,4.70
2024-02-13T16:40:49.506Z,3.70
2024-02-13T16:45:55.254Z,2.67
2024-02-13T16:51:01.100Z,3.00
2024-02-13T16:56:07.841Z,3.30
2024-02-13T17:01:13.670Z,3.60
2024-02-13T17:06:21.107Z,3.43
2024-02-13T17:11:26.994Z,2.47
2024-02-13T17:16:33.155Z,4.50
2024-02-13T17:21:38.931Z,2.90
2024-02-13T17:26:44.976Z,5.03
2024-02-13T17:31:51.901Z,4.43
2024-02-13T17:36:57.582Z,3.40
2024-02-13T17:42:04.984Z,2.10
2024-02-13T17:47:10.871Z,3.23
2024-02-13T17:52:16.547Z,3.67
2024-02-13T17:57:22.206Z,3.10
2024-02-13T18:02:28.099Z,3.03
2024-02-13T18:07:35.284Z,5.63
2024-02-13T18:12:44.418Z,2.37
2024-02-13T18:17:50.254Z,3.67
2024-02-13T18:22:58.447Z,3.23
2024-02-13T18:28:04.287Z,4.50
2024-02-13T18:33:10.829Z,2.17
2024-02-13T18:38:17.559Z,3.27
2024-02-13T18:43:23.492Z,4.50
2024-02-13T18:48:29.455Z,3.87
2024-02-13T18:53:35.715Z,4.00
2024-02-13T18:58:41.761Z,4.27
2024-02-13T19:03:48.753Z,2.93
2024-02-13T19:08:54.543Z,4.17
2024-02-13T19:14:00.413Z,1.97
2024-02-13T19:19:06.420Z,4.60
2024-02-13T19:24:12.820Z,2.80
2024-02-13T19:29:19.000Z,2.23
2024-02-13T19:34:28.324Z,2.03
2024-02-13T19:39:33.585Z,4.93
2024-02-13T19:44:40.407Z,4.07
2024-02-13T19:49:46.343Z,3.60
2024-02-13T19:54:52.097Z,3.53
2024-02-13T19:59:57.907Z,2.23
2024-02-13T20:05:03.692Z,3.73
2024-02-13T20:10:10.509Z,3.30
2024-02-13T20:15:16.437Z,3.57
2024-02-13T20:20:22.133Z,4.07
2024-02-13T20:25:27.967Z,3.80
2024-02-13T20:30:35.375Z,2.77
2024-02-13T20:35:44.384Z,3.93
2024-02-13T20:40:51.808Z,3.47
2024-02-13T20:45:59.661Z,2.73
2024-02-13T20:51:06.024Z,3.17
2024-02-13T20:56:11.759Z,3.03
2024-02-13T21:01:17.513Z,2.63
2024-02-13T21:06:25.508Z,4.60
2024-02-13T21:11:32.907Z,2.50
2024-02-13T21:16:38.624Z,3.03
2024-02-13T21:22:03.122Z,3.63
2024-02-13T21:27:08.819Z,4.53
2024-02-13T21:32:15.648Z,2.93
2024-02-13T21:37:21.572Z,3.27
2024-02-13T21:42:27.329Z,4.23
2024-02-13T21:47:33.052Z,2.60
2024-02-13T21:52:42.074Z,3.20
2024-02-13T21:57:47.944Z,3.23
2024-02-13T22:02:53.978Z,4.37
2024-02-13T22:07:59.687Z,2.77
2024-02-13T22:13:07.340Z,2.83
2024-02-13T22:18:14.982Z,3.63
2024-02-13T22:23:20.775Z,2.87
2024-02-13T22:28:26.622Z,3.20
2024-02-13T22:33:32.508Z,4.43
2024-02-13T22:38:38.278Z,2.50
2024-02-13T22:43:44.198Z,2.57
2024-02-13T22:48:50.578Z,2.57
2024-02-13T22:53:56.480Z,3.70
2024-02-13T22:59:03.102Z,6.03
2024-02-13T23:04:09.372Z,3.60
2024-02-13T23:09:18.586Z,3.57
2024-02-13T23:14:25.269Z,3.23
2024-02-13T23:19:31.850Z,5.10
2024-02-13T23:24:39.111Z,4.00
2024-02-13T23:29:44.805Z,3.07
2024-02-13T23:34:51.020Z,5.80
2024-02-13T23:39:57.282Z,2.80
2024-02-13T23:45:03.001Z,3.10
2024-02-13T23:50:09.602Z,4.10
2024-02-13T23:55:16.207Z,6.07
